createdAt,value
2023-02-27T00:00:30.656Z,103722.06
2023-02-27T00:02:59.876Z,103713.44
2023-02-27T00:05:29.369Z,103695.81
2023-02-27T00:07:57.308Z,103675.91
2023-02-27T00:10:25.639Z,103653.72
2023-02-27T00:12:53.637Z,103644.50
2023-02-27T00:15:22.670Z,103629.16
2023-02-27T00:17:51.266Z,103627.44
2023-02-27T00:20:21.865Z,103600.91
2023-02-27T00:22:51.973Z,103597.50
2023-02-27T00:25:20.320Z,103571.47
2023-02-27T00:27:50.542Z,103576.78
2023-02-27T00:30:18.790Z,103558.44
2023-02-27T00:32:46.942Z,103558.34
2023-02-27T00:35:15.566Z,103542.47
2023-02-27T00:37:43.527Z,103532.47
2023-02-27T00:40:14.228Z,103526.91
2023-02-27T00:42:42.448Z,103497.22
2023-02-27T00:45:11.196Z,103482.69
2023-02-27T00:47:39.068Z,103494.88
2023-02-27T00:50:08.044Z,103474.94
2023-02-27T00:52:37.957Z,103462.34
2023-02-27T00:55:06.693Z,103450.19
2023-02-27T00:57:38.670Z,103453.19
2023-02-27T01:00:08.680Z,103450.19
2023-02-27T01:02:36.659Z,103433.81
2023-02-27T01:05:10.237Z,103428.66
2023-02-27T01:07:39.430Z,103435.66
2023-02-27T01:10:08.802Z,103445.41
2023-02-27T01:12:38.257Z,103437.34
2023-02-27T01:15:08.439Z,103437.47
2023-02-27T01:17:36.502Z,103418.69
2023-02-27T01:20:07.725Z,103418.31
2023-02-27T01:22:36.092Z,103418.78
2023-02-27T01:25:04.732Z,103414.69
2023-02-27T01:27:32.598Z,103404.75
2023-02-27T01:30:01.922Z,103402.75
2023-02-27T01:32:30.118Z,103391.41
2023-02-27T01:34:58.349Z,103381.44
2023-02-27T01:37:26.329Z,103389.25
2023-02-27T01:39:57.536Z,103394.94
2023-02-27T01:42:28.274Z,103357.75
2023-02-27T01:45:35.035Z,103362.81
2023-02-27T01:48:16.361Z,103362.34
2023-02-27T01:50:55.262Z,103359.22
2023-02-27T01:53:38.146Z,103347.41
2023-02-27T01:56:13.571Z,103354.13
2023-02-27T01:59:04.040Z,103358.00
2023-02-27T02:01:35.970Z,103346.72
2023-02-27T02:04:11.375Z,103365.84
2023-02-27T02:06:43.898Z,103380.03
2023-02-27T02:09:22.829Z,103369.81
2023-02-27T02:11:58.751Z,103337.41
2023-02-27T02:14:27.659Z,103354.53
2023-02-27T02:17:11.329Z,103358.78
2023-02-27T02:20:14.955Z,103354.81
2023-02-27T02:23:36.430Z,103367.88
2023-02-27T02:26:29.277Z,103361.88
2023-02-27T02:29:32.592Z,103371.25
2023-02-27T02:32:31.759Z,103378.06
2023-02-27T02:35:37.648Z,103392.34
2023-02-27T02:38:44.694Z,103394.47
2023-02-27T02:41:20.123Z,103378.22
2023-02-27T02:44:01.216Z,103383.19
2023-02-27T02:46:35.511Z,103381.25
2023-02-27T02:49:15.473Z,103377.41
2023-02-27T02:51:50.335Z,103373.69
2023-02-27T02:54:26.178Z,103373.53
2023-02-27T02:57:03.310Z,103385.88
2023-02-27T02:59:36.508Z,103354.84
2023-02-27T03:02:08.740Z,103365.97
2023-02-27T03:04:41.180Z,103350.66
2023-02-27T03:07:16.124Z,103355.25
2023-02-27T03:09:58.399Z,103347.69
2023-02-27T03:12:32.733Z,103368.00
2023-02-27T03:15:06.288Z,103376.75
2023-02-27T03:17:41.186Z,103353.94
2023-02-27T03:20:12.473Z,103367.53
2023-02-27T03:22:46.868Z,103371.59
2023-02-27T03:25:16.832Z,103374.81
2023-02-27T03:27:48.767Z,103354.34
2023-02-27T03:30:21.663Z,103374.66
2023-02-27T03:32:56.884Z,103373.84
2023-02-27T03:35:32.850Z,103372.22
2023-02-27T03:38:08.297Z,103380.53
2023-02-27T03:40:43.846Z,103377.72
2023-02-27T03:43:21.050Z,103357.56
2023-02-27T03:45:57.365Z,103385.16
2023-02-27T03:48:25.736Z,103385.03
2023-02-27T03:50:54.895Z,103373.66
2023-02-27T03:53:28.833Z,103382.41
2023-02-27T03:55:59.758Z,103385.03
2023-02-27T03:58:27.786Z,103393.63
2023-02-27T04:00:56.417Z,103391.75
2023-02-27T04:03:24.861Z,103371.63
2023-02-27T04:05:53.756Z,103381.13
2023-02-27T04:08:49.685Z,103388.13
2023-02-27T04:11:33.391Z,103364.94
2023-02-27T04:14:23.978Z,103401.25
2023-02-27T04:17:02.625Z,103397.47
2023-02-27T04:19:53.328Z,103393.84
2023-02-27T04:22:32.784Z,103402.59
2023-02-27T04:25:17.142Z,103395.50
2023-02-27T04:27:55.953Z,103390.91
2023-02-27T04:30:29.813Z,103398.06
2023-02-27T04:33:03.500Z,103388.06
2023-02-27T04:35:38.523Z,103413.72
2023-02-27T04:38:13.036Z,103416.94
2023-02-27T04:40:49.546Z,103419.78
2023-02-27T04:43:21.590Z,103414.22
2023-02-27T04:45:51.679Z,103389.59
2023-02-27T04:48:26.004Z,103412.28
2023-02-27T04:50:59.731Z,103421.59
2023-02-27T04:53:32.262Z,103419.75
2023-02-27T04:56:05.005Z,103414.69
2023-02-27T04:58:38.268Z,103425.59
2023-02-27T05:01:13.149Z,103435.19
2023-02-27T05:03:45.698Z,103428.41
2023-02-27T05:06:16.478Z,103434.38
2023-02-27T05:08:50.699Z,103437.06
2023-02-27T05:11:27.108Z,103430.03
2023-02-27T05:14:00.070Z,103423.41
2023-02-27T05:16:34.462Z,103417.53
2023-02-27T05:19:03.094Z,103429.16
2023-02-27T05:21:35.560Z,103435.44
2023-02-27T05:24:13.882Z,103441.00
2023-02-27T05:27:11.061Z,103429.34
2023-02-27T05:29:46.458Z,103440.50
2023-02-27T05:32:23.765Z,103454.63
2023-02-27T05:34:55.897Z,103458.50
2023-02-27T05:37:28.773Z,103451.41
2023-02-27T05:39:56.822Z,103464.88
2023-02-27T05:42:30.774Z,103464.28
2023-02-27T05:45:06.909Z,103462.09
2023-02-27T05:47:38.670Z,103467.84
2023-02-27T05:50:11.500Z,103459.28
2023-02-27T05:52:42.072Z,103471.09
2023-02-27T05:55:17.048Z,103468.28
2023-02-27T05:58:03.091Z,103470.66
2023-02-27T06:00:38.089Z,103468.81
2023-02-27T06:03:10.912Z,103456.47
2023-02-27T06:05:45.972Z,103466.38
2023-02-27T06:08:22.532Z,103454.03
2023-02-27T06:10:51.861Z,103459.00
2023-02-27T06:13:21.098Z,103439.97
2023-02-27T06:15:51.695Z,103467.28
2023-02-27T06:18:20.294Z,103476.03
2023-02-27T06:20:48.552Z,103466.03
2023-02-27T06:23:17.244Z,103457.84
2023-02-27T06:25:45.698Z,103467.75
2023-02-27T06:28:13.726Z,103467.97
2023-02-27T06:30:42.076Z,103465.94
2023-02-27T06:33:13.495Z,103462.25
2023-02-27T06:35:42.444Z,103473.66
2023-02-27T06:38:11.074Z,103479.72
2023-02-27T06:40:39.279Z,103472.66
2023-02-27T06:43:08.755Z,103467.97
2023-02-27T06:45:40.724Z,103445.69
2023-02-27T06:48:08.731Z,103476.13
2023-02-27T06:50:38.138Z,103475.38
2023-02-27T06:53:07.029Z,103479.16
2023-02-27T06:55:34.896Z,103490.50
2023-02-27T06:58:03.879Z,103482.66
2023-02-27T07:00:32.004Z,103488.56
2023-02-27T07:03:00.534Z,103477.31
2023-02-27T07:05:29.584Z,103493.34
2023-02-27T07:08:00.265Z,103509.97
2023-02-27T07:10:28.895Z,103529.75
2023-02-27T07:12:57.014Z,103534.44
2023-02-27T07:15:27.801Z,103539.94
2023-02-27T07:17:55.856Z,103543.03
2023-02-27T07:20:27.439Z,103558.63
2023-02-27T07:22:55.415Z,103554.50
2023-02-27T07:25:27.759Z,103575.63
2023-02-27T07:27:56.118Z,103565.91
2023-02-27T07:30:24.471Z,103556.31
2023-02-27T07:32:53.071Z,103557.34
2023-02-27T07:35:21.135Z,103561.16
2023-02-27T07:37:49.508Z,103581.31
2023-02-27T07:40:17.759Z,103599.88
2023-02-27T07:42:48.709Z,103607.13
2023-02-27T07:45:20.806Z,103607.72
2023-02-27T07:47:49.594Z,103597.38
2023-02-27T07:50:18.470Z,103616.00
2023-02-27T07:52:47.055Z,103616.63
2023-02-27T07:55:15.305Z,103632.53
2023-02-27T07:57:43.361Z,103614.75
2023-02-27T08:00:14.360Z,103637.34
2023-02-27T08:02:42.485Z,103650.78
2023-02-27T08:05:10.924Z,103653.53
2023-02-27T08:07:39.137Z,103675.28
2023-02-27T08:10:08.346Z,103674.81
2023-02-27T08:12:36.541Z,103676.41
2023-02-27T08:15:05.266Z,103667.75
2023-02-27T08:17:34.694Z,103678.56
2023-02-27T08:20:02.851Z,103658.56
2023-02-27T08:22:31.977Z,103685.47
2023-02-27T08:25:01.321Z,103685.38
2023-02-27T08:27:30.663Z,103693.91
2023-02-27T08:29:59.167Z,103713.41
2023-02-27T08:32:28.888Z,103725.88
2023-02-27T08:34:59.658Z,103724.31
2023-02-27T08:37:27.684Z,103710.16
2023-02-27T08:39:55.918Z,103710.53
2023-02-27T08:42:26.565Z,103707.41
2023-02-27T08:44:54.721Z,103693.59
2023-02-27T08:47:22.657Z,103668.94
2023-02-27T08:49:50.717Z,103677.03
2023-02-27T08:52:22.843Z,103685.78
2023-02-27T08:54:53.703Z,103689.50
2023-02-27T08:57:22.052Z,103697.16
2023-02-27T08:59:51.135Z,103692.56
2023-02-27T09:02:19.376Z,103688.56
2023-02-27T09:04:47.721Z,103674.81
2023-02-27T09:07:16.047Z,103674.97
2023-02-27T09:09:49.096Z,103667.19
2023-02-27T09:12:17.988Z,103657.47
2023-02-27T09:14:45.908Z,103658.78
2023-02-27T09:17:14.505Z,103645.34
2023-02-27T09:19:42.501Z,103657.25
2023-02-27T09:22:10.568Z,103650.13
2023-02-27T09:24:41.444Z,103643.75
2023-02-27T09:27:10.711Z,103637.28
2023-02-27T09:29:38.613Z,103643.84
2023-02-27T09:32:06.922Z,103633.63
2023-02-27T09:34:36.461Z,103633.69
2023-02-27T09:37:04.809Z,103635.50
2023-02-27T09:39:36.933Z,103636.66
2023-02-27T09:42:12.460Z,103646.94
2023-02-27T09:44:47.708Z,103639.28
2023-02-27T09:47:22.320Z,103652.16
2023-02-27T09:50:00.051Z,103642.22
2023-02-27T09:52:29.280Z,103674.09
2023-02-27T09:58:42.119Z,103687.59
2023-02-27T10:01:17.324Z,103687.22
2023-02-27T10:04:05.971Z,103721.25
2023-02-27T10:06:43.609Z,103743.19
2023-02-27T10:09:32.511Z,103753.19
2023-02-27T10:12:22.750Z,103760.81
2023-02-27T10:14:55.586Z,103747.41
2023-02-27T10:17:29.899Z,103760.16
2023-02-27T10:20:03.683Z,103718.06
2023-02-27T10:23:19.056Z,103633.53
2023-02-27T10:25:53.642Z,103600.78
2023-02-27T10:28:23.938Z,103593.97
2023-02-27T10:30:55.489Z,103555.00
2023-02-27T10:33:28.475Z,103541.00
2023-02-27T10:35:57.820Z,103356.31
2023-02-27T10:38:33.431Z,103057.13
2023-02-27T10:41:07.812Z,102675.31
2023-02-27T10:43:36.666Z,102195.56
2023-02-27T10:46:13.179Z,101663.47
2023-02-27T10:48:43.022Z,101664.97
2023-02-27T10:51:28.851Z,101781.94
2023-02-27T10:54:15.769Z,101666.06
2023-02-27T10:56:48.854Z,101723.38
2023-02-27T10:59:22.262Z,101729.09
2023-02-27T11:01:52.745Z,101782.09
2023-02-27T11:04:33.123Z,101849.50
2023-02-27T11:07:04.414Z,101834.88
2023-02-27T11:09:34.230Z,101736.56
2023-02-27T11:12:14.695Z,101726.06
2023-02-27T11:15:02.072Z,101665.72
2023-02-27T11:17:32.777Z,101799.34
2023-02-27T11:20:06.549Z,101854.09
2023-02-27T11:22:36.737Z,101868.16
2023-02-27T11:25:20.470Z,101928.53
2023-02-27T11:27:49.126Z,101895.91
2023-02-27T11:30:32.073Z,101865.16
2023-02-27T11:33:02.887Z,101880.97
2023-02-27T11:35:35.389Z,101909.91
2023-02-27T11:38:06.642Z,101847.94
2023-02-27T11:40:39.490Z,101778.25
2023-02-27T11:43:17.926Z,101781.00
2023-02-27T11:46:18.098Z,101877.19
2023-02-27T11:48:43.511Z,101840.59
2023-02-27T11:51:55.084Z,101798.28
2023-02-27T11:54:37.226Z,101741.28
2023-02-27T11:57:15.948Z,101753.31
2023-02-27T11:59:49.143Z,101700.44
2023-02-27T12:02:26.555Z,101688.16
2023-02-27T12:04:59.484Z,101712.97
2023-02-27T12:07:34.496Z,101756.88
2023-02-27T12:10:07.471Z,101783.28
2023-02-27T12:12:45.300Z,101814.41
2023-02-27T12:15:27.850Z,101759.72
2023-02-27T12:18:14.804Z,101727.41
2023-02-27T12:20:52.282Z,101783.38
2023-02-27T12:23:30.342Z,101833.41
2023-02-27T12:26:05.439Z,101732.94
2023-02-27T12:28:52.220Z,101693.06
2023-02-27T12:31:46.827Z,101673.81
2023-02-27T12:34:26.067Z,101617.63
2023-02-27T12:36:55.015Z,101687.41
2023-02-27T12:39:26.396Z,101651.97
2023-02-27T12:42:25.747Z,101665.34
2023-02-27T12:45:16.745Z,101651.41
2023-02-27T12:47:52.931Z,101678.13
2023-02-27T12:50:33.321Z,101854.25
2023-02-27T12:53:14.845Z,101839.50
2023-02-27T12:55:49.854Z,101885.00
2023-02-27T12:58:36.678Z,101911.09
2023-02-27T13:01:35.845Z,101887.50
2023-02-27T13:04:11.408Z,101892.63
2023-02-27T13:06:48.612Z,101913.53
2023-02-27T13:09:26.720Z,101935.44
2023-02-27T13:12:10.173Z,101906.44
2023-02-27T13:14:48.794Z,101870.63
2023-02-27T13:17:24.446Z,101905.53
2023-02-27T13:19:56.392Z,101892.56
2023-02-27T13:22:35.359Z,101862.16
2023-02-27T13:25:11.622Z,101842.16
2023-02-27T13:27:46.392Z,101854.53
2023-02-27T13:30:21.852Z,101858.00
2023-02-27T13:33:01.054Z,101865.06
2023-02-27T13:35:40.860Z,101878.16
2023-02-27T13:38:32.061Z,101897.25
2023-02-27T13:41:39.943Z,101885.69
2023-02-27T13:44:48.663Z,101890.78
2023-02-27T13:47:52.177Z,101898.88
2023-02-27T13:50:53.511Z,101885.81
2023-02-27T13:53:25.455Z,101882.22
2023-02-27T13:56:16.058Z,101938.66
2023-02-27T13:58:45.049Z,101976.53
2023-02-27T14:01:19.116Z,102076.19
2023-02-27T14:03:55.040Z,102030.19
2023-02-27T14:06:27.428Z,102008.31
2023-02-27T14:09:14.345Z,101881.63
2023-02-27T14:11:54.935Z,101818.13
2023-02-27T14:14:45.509Z,101856.69
2023-02-27T14:17:15.466Z,101839.66
2023-02-27T14:20:06.607Z,101865.53
2023-02-27T14:23:10.233Z,101859.75
2023-02-27T14:25:43.123Z,101879.94
2023-02-27T14:28:24.989Z,101882.72
2023-02-27T14:30:57.441Z,101841.09
2023-02-27T14:37:17.493Z,101800.81
2023-02-27T14:39:49.131Z,101799.78
2023-02-27T14:42:38.092Z,101847.97
2023-02-27T14:45:13.829Z,101801.44
2023-02-27T14:47:42.327Z,101808.59
2023-02-27T14:50:24.540Z,101761.16
2023-02-27T14:52:52.776Z,101768.34
2023-02-27T14:55:28.003Z,101795.50
2023-02-27T14:58:01.055Z,101785.00
2023-02-27T15:00:34.985Z,101773.66
2023-02-27T15:03:20.504Z,101787.69
2023-02-27T15:05:54.951Z,101736.47
2023-02-27T15:08:26.390Z,101799.41
2023-02-27T15:10:56.758Z,101804.63
2023-02-27T15:13:30.058Z,101792.56
2023-02-27T15:16:43.897Z,101796.25
2023-02-27T15:19:16.321Z,101803.19
2023-02-27T15:21:47.087Z,101803.19
2023-02-27T15:24:26.001Z,101829.44
2023-02-27T15:26:57.399Z,101852.16
2023-02-27T15:29:33.938Z,101846.03
2023-02-27T15:32:03.031Z,101860.28
2023-02-27T15:34:32.245Z,101849.06
2023-02-27T15:37:03.884Z,101843.91
2023-02-27T15:39:35.570Z,101843.88
2023-02-27T15:42:21.452Z,101859.63
2023-02-27T15:44:52.953Z,101847.44
2023-02-27T15:47:25.857Z,101857.22
2023-02-27T15:50:24.119Z,101892.38
2023-02-27T15:52:54.429Z,101910.94
2023-02-27T15:55:31.768Z,101918.00
2023-02-27T15:58:03.407Z,101921.59
2023-02-27T16:00:37.235Z,101933.00
2023-02-27T16:03:07.836Z,102005.84
2023-02-27T16:05:38.057Z,102023.41
2023-02-27T16:08:07.366Z,102028.69
2023-02-27T16:10:39.328Z,102025.19
2023-02-27T16:13:31.752Z,102034.81
2023-02-27T16:16:05.854Z,102062.94
2023-02-27T16:18:38.255Z,102080.47
2023-02-27T16:21:14.185Z,102136.63
2023-02-27T16:23:44.088Z,102069.97
2023-02-27T16:26:30.532Z,101991.91
2023-02-27T16:29:02.700Z,101983.16
2023-02-27T16:31:36.740Z,101964.75
2023-02-27T16:34:16.594Z,101958.59
2023-02-27T16:36:54.167Z,101956.81
2023-02-27T16:39:22.338Z,101927.03
2023-02-27T16:41:50.666Z,101932.28
2023-02-27T16:44:18.544Z,101941.94
2023-02-27T16:46:48.165Z,101984.00
2023-02-27T16:49:22.417Z,101965.63
2023-02-27T16:51:51.151Z,102026.97
2023-02-27T16:54:20.443Z,101971.75
2023-02-27T16:56:50.236Z,101871.88
2023-02-27T16:59:30.980Z,101680.97
2023-02-27T17:02:03.485Z,101697.63
2023-02-27T17:04:31.855Z,101762.44
2023-02-27T17:07:06.636Z,101819.31
2023-02-27T17:09:35.220Z,101858.69
2023-02-27T17:12:04.681Z,102073.06
2023-02-27T17:14:33.023Z,103371.44
2023-02-27T17:17:08.008Z,103426.38
2023-02-27T17:19:36.040Z,103529.81
2023-02-27T17:22:04.227Z,103523.22
2023-02-27T17:24:34.945Z,103543.25
2023-02-27T17:27:03.229Z,103536.06
2023-02-27T17:29:32.219Z,103542.56
2023-02-27T17:32:00.951Z,103543.47
2023-02-27T17:34:31.815Z,103516.41
2023-02-27T17:37:02.866Z,103521.94
2023-02-27T17:39:33.447Z,103521.06
2023-02-27T17:42:01.412Z,103499.69
2023-02-27T17:44:30.198Z,103517.59
2023-02-27T17:47:00.894Z,103519.38
2023-02-27T17:49:29.004Z,103507.53
2023-02-27T17:52:00.637Z,103510.72
2023-02-27T17:54:30.946Z,103510.09
2023-02-27T17:57:00.197Z,103505.25
2023-02-27T17:59:28.373Z,103491.53
2023-02-27T18:01:56.533Z,103478.72
2023-02-27T18:04:24.517Z,103472.53
2023-02-27T18:06:52.765Z,103473.97
2023-02-27T18:09:22.423Z,103473.66
2023-02-27T18:11:53.170Z,103467.63
2023-02-27T18:14:21.245Z,103460.16
2023-02-27T18:16:49.466Z,103458.50
2023-02-27T18:19:18.317Z,103458.19
2023-02-27T18:21:47.157Z,103453.38
2023-02-27T18:24:17.261Z,103450.44
2023-02-27T18:26:46.739Z,103438.66
2023-02-27T18:29:16.265Z,103454.34
2023-02-27T18:31:54.588Z,103449.16
2023-02-27T18:34:23.187Z,103462.84
2023-02-27T18:36:59.238Z,103461.72
2023-02-27T18:39:28.109Z,103479.38
2023-02-27T18:42:06.659Z,103484.56
2023-02-27T18:44:52.945Z,103509.28
2023-02-27T18:47:21.878Z,103517.44
2023-02-27T18:49:53.645Z,103530.47
2023-02-27T18:52:21.867Z,103508.75
2023-02-27T18:54:51.028Z,103517.47
2023-02-27T18:57:23.192Z,103533.63
2023-02-27T18:59:57.403Z,103521.41
2023-02-27T19:02:25.464Z,103529.78
2023-02-27T19:04:53.583Z,103537.41
2023-02-27T19:07:23.363Z,103564.50
2023-02-27T19:09:52.311Z,103563.09
2023-02-27T19:12:23.586Z,103565.97
2023-02-27T19:14:53.020Z,103549.44
2023-02-27T19:17:21.382Z,103576.75
2023-02-27T19:19:50.793Z,103573.91
2023-02-27T19:22:21.268Z,103580.16
2023-02-27T19:24:51.258Z,103589.63
2023-02-27T19:27:19.349Z,103601.28
2023-02-27T19:29:49.112Z,103593.78
2023-02-27T19:32:17.870Z,103585.81
2023-02-27T19:34:50.189Z,103601.91
2023-02-27T19:37:18.248Z,103597.59
2023-02-27T19:39:51.832Z,103601.09
2023-02-27T19:42:20.675Z,103600.50
2023-02-27T19:44:50.219Z,103616.66
2023-02-27T19:47:18.193Z,103607.72
2023-02-27T19:49:48.063Z,103600.41
2023-02-27T19:52:16.514Z,103625.13
2023-02-27T19:54:46.200Z,103610.19
2023-02-27T19:57:17.769Z,103609.19
2023-02-27T19:59:46.869Z,103614.69
2023-02-27T20:02:16.163Z,103607.16
2023-02-27T20:04:44.648Z,103596.66
2023-02-27T20:07:12.781Z,103602.38
2023-02-27T20:09:40.896Z,103618.94
2023-02-27T20:12:11.118Z,103580.41
2023-02-27T20:14:40.273Z,103614.28
2023-02-27T20:17:10.758Z,103618.41
2023-02-27T20:19:54.144Z,103620.59
2023-02-27T20:22:23.100Z,103639.31
2023-02-27T20:24:51.394Z,103618.34
2023-02-27T20:27:21.693Z,103625.88
2023-02-27T20:29:54.596Z,103621.97
2023-02-27T20:32:23.433Z,103611.66
2023-02-27T20:34:52.312Z,103628.09
2023-02-27T20:37:24.202Z,103623.22
2023-02-27T20:39:52.366Z,103627.63
2023-02-27T20:42:22.535Z,103614.94
2023-02-27T20:44:50.883Z,103615.09
2023-02-27T20:47:19.245Z,103632.94
2023-02-27T20:49:47.512Z,103632.09
2023-02-27T20:52:15.558Z,103634.16
2023-02-27T20:54:45.187Z,103633.47
2023-02-27T20:57:13.498Z,103640.28
2023-02-27T20:59:41.613Z,103621.56
2023-02-27T21:02:11.054Z,103622.34
2023-02-27T21:04:47.454Z,103644.63
2023-02-27T21:07:17.871Z,103638.50
2023-02-27T21:09:47.778Z,103661.84
2023-02-27T21:12:17.471Z,103632.63
2023-02-27T21:14:46.591Z,103660.25
2023-02-27T21:17:40.192Z,103635.63
2023-02-27T21:20:10.160Z,103654.81
2023-02-27T21:22:39.915Z,103661.09
2023-02-27T21:25:10.438Z,103643.47
2023-02-27T21:27:41.165Z,103645.44
2023-02-27T21:30:14.232Z,103649.16
2023-02-27T21:32:42.518Z,103649.16
2023-02-27T21:35:16.452Z,103626.19
2023-02-27T21:37:46.793Z,103633.59
2023-02-27T21:40:17.495Z,103654.38
2023-02-27T21:42:45.919Z,103649.00
2023-02-27T21:45:16.822Z,103641.09
2023-02-27T21:47:44.836Z,103651.69
2023-02-27T21:50:14.861Z,103658.84
2023-02-27T21:52:43.467Z,103659.88
2023-02-27T21:55:18.059Z,103660.03
2023-02-27T21:57:47.712Z,103648.38
2023-02-27T22:00:17.723Z,103630.00
2023-02-27T22:02:52.070Z,103636.25
2023-02-27T22:05:20.705Z,103655.88
2023-02-27T22:07:51.580Z,103657.34
2023-02-27T22:10:26.465Z,103634.34
2023-02-27T22:12:54.444Z,103664.41
2023-02-27T22:15:22.900Z,103657.28
2023-02-27T22:17:52.360Z,103667.69
2023-02-27T22:20:20.710Z,103662.31
2023-02-27T22:22:51.262Z,103670.16
2023-02-27T22:25:20.830Z,103657.78
2023-02-27T22:27:49.621Z,103645.28
2023-02-27T22:30:17.864Z,103673.00
2023-02-27T22:32:48.088Z,103677.53
2023-02-27T22:35:18.914Z,103676.69
2023-02-27T22:37:46.992Z,103679.69
2023-02-27T22:40:16.416Z,103677.06
2023-02-27T22:42:46.537Z,103675.09
2023-02-27T22:45:14.955Z,103686.00
2023-02-27T22:47:42.812Z,103690.81
2023-02-27T22:50:12.047Z,103668.44
2023-02-27T22:52:47.011Z,103698.72
2023-02-27T22:55:18.462Z,103703.47
2023-02-27T22:57:52.748Z,103703.59
2023-02-27T23:00:33.535Z,103694.69
2023-02-27T23:03:20.009Z,103709.78
2023-02-27T23:05:48.893Z,103705.25
2023-02-27T23:08:28.118Z,103709.59
2023-02-27T23:10:57.398Z,103708.00
2023-02-27T23:13:33.616Z,103716.81
2023-02-27T23:16:20.288Z,103712.53
2023-02-27T23:18:54.491Z,103689.44
2023-02-27T23:21:26.715Z,103711.56
2023-02-27T23:23:57.477Z,103705.44
2023-02-27T23:26:28.628Z,103695.91
2023-02-27T23:28:58.694Z,103708.19
2023-02-27T23:31:27.549Z,103705.75
2023-02-27T23:34:00.307Z,103702.03
2023-02-27T23:36:28.520Z,103707.25
2023-02-27T23:39:04.189Z,103698.19
2023-02-27T23:41:32.510Z,103693.41
2023-02-27T23:44:21.601Z,103702.28
2023-02-27T23:46:49.729Z,103690.66
2023-02-27T23:49:17.962Z,103701.28
2023-02-27T23:51:46.127Z,103699.66
2023-02-27T23:54:14.223Z,103690.66
2023-02-27T23:56:59.899Z,103698.00
2023-02-27T23:59:30.897Z,103685.88
